createdAt,value
2018-07-08T00:00:25.062Z,6.70
2018-07-08T00:02:53.327Z,5.90
2018-07-08T00:05:21.617Z,6.17
2018-07-08T00:07:49.906Z,6.00
2018-07-08T00:10:18.132Z,5.03
2018-07-08T00:12:46.348Z,5.73
2018-07-08T00:15:14.560Z,5.87
2018-07-08T00:17:42.857Z,5.73
2018-07-08T00:20:11.056Z,4.87
2018-07-08T00:22:39.332Z,5.47
2018-07-08T00:25:07.621Z,5.27
2018-07-08T00:27:36.012Z,4.77
2018-07-08T00:30:04.569Z,4.57
2018-07-08T00:32:32.893Z,4.80
2018-07-08T00:35:01.083Z,4.60
2018-07-08T00:37:29.273Z,5.00
2018-07-08T00:39:57.556Z,4.67
2018-07-08T00:42:25.716Z,4.30
2018-07-08T00:44:53.683Z,4.87
2018-07-08T00:47:21.887Z,5.13
2018-07-08T00:49:50.096Z,5.13
2018-07-08T00:52:18.278Z,4.80
2018-07-08T00:54:46.487Z,4.53
2018-07-08T00:57:15.285Z,4.60
2018-07-08T00:59:43.497Z,4.67
2018-07-08T01:02:11.746Z,4.37
2018-07-08T01:04:40.200Z,4.57
2018-07-08T01:07:08.433Z,4.80
2018-07-08T01:09:36.636Z,4.20
2018-07-08T01:12:04.844Z,3.93
2018-07-08T01:14:33.090Z,4.20
2018-07-08T01:17:01.318Z,4.13
2018-07-08T01:19:30.957Z,4.40
2018-07-08T01:21:59.177Z,4.27
2018-07-08T01:24:27.424Z,4.10
2018-07-08T01:26:55.662Z,4.70
2018-07-08T01:29:23.905Z,4.20
2018-07-08T01:31:52.129Z,4.43
2018-07-08T01:34:20.422Z,4.17
2018-07-08T01:36:48.628Z,4.40
2018-07-08T01:39:16.898Z,4.57
2018-07-08T01:41:45.187Z,3.80
2018-07-08T01:44:13.444Z,4.00
2018-07-08T01:46:41.597Z,4.03
2018-07-08T01:49:09.849Z,4.50
2018-07-08T01:51:38.100Z,4.47
2018-07-08T01:54:06.323Z,4.07
2018-07-08T01:56:34.618Z,3.93
2018-07-08T01:59:02.904Z,3.90
2018-07-08T02:01:31.189Z,4.20
2018-07-08T02:03:59.260Z,4.10
2018-07-08T02:06:27.506Z,4.00
2018-07-08T02:08:55.694Z,4.23
2018-07-08T02:11:24.000Z,4.00
2018-07-08T02:13:52.747Z,4.40
2018-07-08T02:16:21.576Z,4.23
2018-07-08T02:18:49.812Z,4.27
2018-07-08T02:21:18.046Z,3.80
2018-07-08T02:23:46.968Z,3.97
2018-07-08T02:26:15.240Z,4.20
2018-07-08T02:28:43.477Z,4.57
2018-07-08T02:31:11.782Z,4.53
2018-07-08T02:33:40.070Z,4.50
2018-07-08T02:36:08.005Z,4.10
2018-07-08T02:38:36.426Z,3.97
2018-07-08T02:41:04.631Z,3.90
2018-07-08T02:43:32.852Z,4.27
2018-07-08T02:46:01.061Z,4.00
2018-07-08T02:48:29.276Z,3.77
2018-07-08T02:50:57.491Z,4.40
2018-07-08T02:53:25.700Z,4.53
2018-07-08T02:55:53.913Z,3.73
2018-07-08T02:58:22.137Z,4.83
2018-07-08T03:00:50.426Z,4.33
2018-07-08T03:03:18.625Z,4.70
2018-07-08T03:05:46.869Z,3.97
2018-07-08T03:08:15.091Z,4.13
2018-07-08T03:10:43.308Z,4.60
2018-07-08T03:13:11.501Z,4.40
2018-07-08T03:15:39.724Z,4.30
2018-07-08T03:18:07.925Z,4.70
2018-07-08T03:20:36.158Z,4.20
2018-07-08T03:23:04.405Z,4.53
2018-07-08T03:25:32.629Z,4.73
2018-07-08T03:28:00.881Z,4.70
2018-07-08T03:30:29.091Z,4.70
2018-07-08T03:32:57.387Z,4.53
2018-07-08T03:35:25.589Z,4.90
2018-07-08T03:37:53.884Z,4.60
2018-07-08T03:40:22.088Z,4.93
2018-07-08T03:42:50.409Z,5.10
2018-07-08T03:45:19.110Z,5.20
2018-07-08T03:47:47.318Z,5.20
2018-07-08T03:50:15.491Z,4.80
2018-07-08T03:52:43.812Z,4.80
2018-07-08T03:55:12.063Z,5.10
2018-07-08T03:57:40.252Z,5.37
2018-07-08T04:00:08.460Z,5.00
2018-07-08T04:02:36.667Z,5.33
2018-07-08T04:05:05.014Z,5.63
2018-07-08T04:07:33.222Z,5.80
2018-07-08T04:10:01.461Z,5.57
2018-07-08T04:12:29.658Z,5.57
2018-07-08T04:14:57.857Z,5.70
2018-07-08T04:17:26.073Z,5.60
2018-07-08T04:19:54.287Z,5.90
2018-07-08T04:22:22.492Z,5.70
2018-07-08T04:24:50.702Z,5.53
2018-07-08T04:27:18.987Z,6.50
2018-07-08T04:29:47.176Z,5.83
2018-07-08T04:32:15.400Z,5.67
2018-07-08T04:34:43.662Z,6.47
2018-07-08T04:37:11.868Z,5.87
2018-07-08T04:39:40.146Z,5.87
2018-07-08T04:42:08.351Z,6.10
2018-07-08T04:44:36.548Z,6.53
2018-07-08T04:47:04.802Z,6.13
2018-07-08T04:49:33.529Z,6.30
2018-07-08T04:52:01.732Z,6.33
2018-07-08T04:54:30.032Z,5.90
2018-07-08T04:56:58.257Z,6.03
2018-07-08T04:59:26.467Z,5.83
2018-07-08T05:01:54.697Z,5.60
2018-07-08T05:04:22.908Z,5.37
2018-07-08T05:06:51.145Z,6.10
2018-07-08T05:09:19.344Z,5.80
2018-07-08T05:11:47.683Z,5.77
2018-07-08T05:14:15.970Z,5.70
2018-07-08T05:16:44.116Z,5.30
2018-07-08T05:19:12.332Z,5.90
2018-07-08T05:21:40.328Z,5.53
2018-07-08T05:24:08.507Z,5.20
2018-07-08T05:26:37.048Z,5.17
2018-07-08T05:29:05.440Z,5.27
2018-07-08T05:31:33.663Z,5.73
2018-07-08T05:34:01.848Z,4.70
2018-07-08T05:36:30.045Z,5.27
2018-07-08T05:38:59.453Z,4.53
2018-07-08T05:41:27.420Z,4.27
2018-07-08T05:43:55.845Z,3.97
2018-07-08T05:46:24.136Z,4.30
2018-07-08T05:48:52.427Z,4.03
2018-07-08T05:51:20.629Z,3.60
2018-07-08T05:53:48.956Z,4.20
2018-07-08T05:56:17.159Z,3.87
2018-07-08T05:58:45.373Z,4.10
2018-07-08T06:01:13.580Z,4.30
2018-07-08T06:03:41.896Z,4.00
2018-07-08T06:06:10.093Z,3.73
2018-07-08T06:08:38.283Z,3.67
2018-07-08T06:11:07.320Z,3.80
2018-07-08T06:13:35.524Z,3.60
2018-07-08T06:16:03.701Z,3.90
2018-07-08T06:18:31.961Z,3.80
2018-07-08T06:21:00.128Z,3.20
2018-07-08T06:23:28.367Z,3.53
2018-07-08T06:25:56.638Z,3.90
2018-07-08T06:28:24.860Z,3.30
2018-07-08T06:30:53.056Z,3.40
2018-07-08T06:33:21.268Z,3.30
2018-07-08T06:35:49.457Z,2.83
2018-07-08T06:38:17.669Z,3.23
2018-07-08T06:40:45.868Z,3.10
2018-07-08T06:43:14.080Z,2.90
2018-07-08T06:45:42.321Z,3.40
2018-07-08T06:48:10.548Z,3.00
2018-07-08T06:50:38.737Z,3.30
2018-07-08T06:53:06.916Z,3.13
2018-07-08T06:55:35.120Z,3.13
2018-07-08T06:58:03.341Z,3.00
2018-07-08T07:00:31.589Z,2.77
2018-07-08T07:02:59.823Z,3.00
2018-07-08T07:05:28.037Z,3.30
2018-07-08T07:07:56.248Z,2.10
2018-07-08T07:10:24.468Z,2.93
2018-07-08T07:12:52.677Z,2.87
2018-07-08T07:15:20.907Z,3.03
2018-07-08T07:17:49.131Z,2.80
2018-07-08T07:20:17.333Z,2.77
2018-07-08T07:22:45.567Z,2.80
2018-07-08T07:25:13.754Z,2.80
2018-07-08T07:27:42.780Z,2.57
2018-07-08T07:30:11.088Z,2.57
2018-07-08T07:32:39.329Z,2.53
2018-07-08T07:35:07.548Z,2.70
2018-07-08T07:37:35.769Z,2.90
2018-07-08T07:40:04.077Z,2.43
2018-07-08T07:42:32.360Z,2.33
2018-07-08T07:45:00.575Z,2.27
2018-07-08T07:47:28.812Z,2.20
2018-07-08T07:49:57.008Z,2.33
2018-07-08T07:52:26.197Z,2.30
2018-07-08T07:54:55.329Z,2.37
2018-07-08T07:57:24.141Z,2.10
2018-07-08T07:59:52.952Z,2.30
2018-07-08T08:02:21.281Z,2.37
2018-07-08T08:04:49.500Z,2.13
2018-07-08T08:07:17.741Z,2.40
2018-07-08T08:09:45.987Z,2.00
2018-07-08T08:12:14.171Z,2.50
2018-07-08T08:14:42.184Z,1.97
2018-07-08T08:17:10.391Z,2.10
2018-07-08T08:19:38.580Z,2.00
2018-07-08T08:22:06.829Z,1.97
2018-07-08T08:24:35.053Z,1.70
2018-07-08T08:27:03.260Z,2.43
2018-07-08T08:29:31.472Z,2.37
2018-07-08T08:32:00.285Z,1.90
2018-07-08T08:35:00.956Z,2.77
2018-07-08T08:37:44.937Z,1.57
2018-07-08T08:40:13.950Z,2.00
2018-07-08T08:42:42.514Z,2.10
2018-07-08T08:45:11.993Z,1.70
2018-07-08T08:47:40.224Z,1.80
2018-07-08T08:50:09.064Z,2.10
2018-07-08T08:52:37.410Z,2.17
2018-07-08T08:55:06.372Z,2.10
2018-07-08T08:57:34.608Z,2.03
2018-07-08T09:00:03.073Z,1.73
2018-07-08T09:02:31.292Z,2.30
2018-07-08T09:04:59.494Z,2.00
2018-07-08T09:07:27.720Z,1.90
2018-07-08T09:09:55.997Z,1.97
2018-07-08T09:12:24.229Z,2.30
2018-07-08T09:14:52.431Z,2.10
2018-07-08T09:17:20.680Z,2.20
2018-07-08T09:19:48.876Z,1.90
2018-07-08T09:22:17.069Z,2.07
2018-07-08T09:24:45.288Z,2.00
2018-07-08T09:27:13.512Z,1.70
2018-07-08T09:29:41.759Z,2.17
2018-07-08T09:32:09.976Z,2.07
2018-07-08T09:34:38.186Z,1.80
2018-07-08T09:37:06.385Z,2.40
2018-07-08T09:39:34.604Z,1.73
2018-07-08T09:42:02.816Z,1.77
2018-07-08T09:44:31.001Z,1.63
2018-07-08T09:46:59.225Z,1.70
2018-07-08T09:49:27.205Z,2.00
2018-07-08T09:51:55.159Z,1.97
2018-07-08T09:54:23.445Z,1.80
2018-07-08T09:56:51.687Z,1.97
2018-07-08T09:59:19.881Z,2.30
2018-07-08T10:01:49.140Z,2.10
2018-07-08T10:04:19.624Z,1.90
2018-07-08T10:06:48.528Z,1.73
2018-07-08T10:09:17.911Z,1.87
2018-07-08T10:11:46.159Z,1.90
2018-07-08T10:14:16.633Z,1.73
2018-07-08T10:16:44.860Z,2.00
2018-07-08T10:19:14.150Z,1.93
2018-07-08T10:21:42.584Z,2.60
2018-07-08T10:24:11.134Z,2.40
2018-07-08T10:26:39.348Z,2.00
2018-07-08T10:29:08.473Z,2.03
2018-07-08T10:31:45.497Z,1.93
2018-07-08T10:34:13.777Z,2.07
2018-07-08T10:36:42.006Z,2.10
2018-07-08T10:39:11.536Z,2.37
2018-07-08T10:41:39.959Z,2.10
2018-07-08T10:44:08.203Z,1.93
2018-07-08T10:46:36.458Z,1.83
2018-07-08T10:49:04.732Z,1.67
2018-07-08T10:51:32.996Z,2.20
2018-07-08T10:54:01.233Z,1.90
2018-07-08T10:56:29.480Z,1.97
2018-07-08T10:58:57.728Z,1.87
2018-07-08T11:01:25.957Z,2.00
2018-07-08T11:03:54.196Z,1.97
2018-07-08T11:06:22.501Z,1.93
2018-07-08T11:08:50.725Z,1.90
2018-07-08T11:11:18.929Z,1.70
2018-07-08T11:13:47.169Z,2.23
2018-07-08T11:16:15.374Z,1.63
2018-07-08T11:18:43.640Z,2.10
2018-07-08T11:21:11.865Z,2.03
2018-07-08T11:23:40.084Z,1.93
2018-07-08T11:26:08.338Z,2.00
2018-07-08T11:28:36.635Z,1.57
2018-07-08T11:31:05.403Z,2.07
2018-07-08T11:33:33.630Z,1.80
2018-07-08T11:36:01.864Z,2.17
2018-07-08T11:38:30.120Z,2.17
2018-07-08T11:40:58.356Z,2.00
2018-07-08T11:43:26.577Z,2.13
2018-07-08T11:45:54.802Z,2.00
2018-07-08T11:48:23.004Z,2.20
2018-07-08T11:50:51.253Z,1.87
2018-07-08T11:53:19.532Z,1.80
2018-07-08T11:55:47.782Z,1.90
2018-07-08T11:58:16.011Z,1.93
2018-07-08T12:00:44.240Z,1.60
2018-07-08T12:03:12.447Z,2.00
2018-07-08T12:05:40.706Z,1.40
2018-07-08T12:08:08.916Z,1.90
2018-07-08T12:10:37.206Z,1.33
2018-07-08T12:13:05.699Z,2.17
2018-07-08T12:15:33.936Z,1.50
2018-07-08T12:18:02.236Z,1.60
2018-07-08T12:20:30.442Z,1.77
2018-07-08T12:22:58.676Z,1.53
2018-07-08T12:25:26.931Z,1.50
2018-07-08T12:27:55.131Z,1.50
2018-07-08T12:30:23.375Z,1.90
2018-07-08T12:32:51.707Z,1.53
2018-07-08T12:35:19.957Z,1.90
2018-07-08T12:37:48.169Z,1.30
2018-07-08T12:40:16.369Z,1.90
2018-07-08T12:42:44.580Z,1.73
2018-07-08T12:45:12.844Z,1.73
2018-07-08T12:47:41.071Z,1.57
2018-07-08T12:50:09.281Z,2.00
2018-07-08T12:52:37.534Z,1.50
2018-07-08T12:55:05.767Z,1.97
2018-07-08T12:57:33.964Z,2.00
2018-07-08T13:00:02.163Z,1.60
2018-07-08T13:02:30.384Z,1.60
2018-07-08T13:04:58.737Z,1.50
2018-07-08T13:07:27.129Z,1.33
2018-07-08T13:09:55.700Z,1.27
2018-07-08T13:12:23.897Z,1.27
2018-07-08T13:14:52.105Z,1.40
2018-07-08T13:17:20.304Z,1.63
2018-07-08T13:19:48.489Z,1.47
2018-07-08T13:22:16.733Z,1.57
2018-07-08T13:24:44.972Z,1.43
2018-07-08T13:27:13.237Z,1.40
2018-07-08T13:29:41.432Z,1.13
2018-07-08T13:32:09.693Z,1.40
2018-07-08T13:34:37.876Z,1.00
2018-07-08T13:37:06.352Z,1.40
2018-07-08T13:39:34.602Z,1.47
2018-07-08T13:42:02.829Z,1.20
2018-07-08T13:44:31.028Z,1.30
2018-07-08T13:46:58.991Z,1.67
2018-07-08T13:49:27.180Z,1.10
2018-07-08T13:51:55.406Z,1.20
2018-07-08T13:54:23.765Z,1.20
2018-07-08T13:56:51.984Z,1.50
2018-07-08T13:59:20.375Z,1.27
2018-07-08T14:01:48.658Z,1.17
2018-07-08T14:04:16.625Z,1.30
2018-07-08T14:06:44.859Z,1.00
2018-07-08T14:09:13.066Z,1.30
2018-07-08T14:11:41.339Z,1.33
2018-07-08T14:14:09.567Z,1.10
2018-07-08T14:16:38.647Z,1.40
2018-07-08T14:19:06.952Z,1.40
2018-07-08T14:21:35.220Z,1.20
2018-07-08T14:24:03.537Z,1.00
2018-07-08T14:26:31.741Z,1.20
2018-07-08T14:28:59.972Z,1.17
2018-07-08T14:31:28.217Z,0.90
2018-07-08T14:33:56.436Z,1.15
2018-07-08T14:36:24.708Z,1.05
2018-07-08T14:38:52.936Z,1.10
2018-07-08T14:41:21.207Z,0.98
2018-07-08T14:43:49.428Z,1.27
2018-07-08T14:46:17.738Z,1.30
2018-07-08T14:48:45.847Z,1.30
2018-07-08T14:51:14.050Z,2.05
2018-07-08T14:53:42.256Z,0.98
2018-07-08T14:56:11.424Z,0.98
2018-07-08T14:58:39.600Z,1.20
2018-07-08T15:01:07.805Z,1.55
2018-07-08T15:03:36.087Z,1.30
2018-07-08T15:06:04.298Z,1.10
2018-07-08T15:08:32.569Z,1.20
2018-07-08T15:11:00.833Z,1.12
2018-07-08T15:13:29.089Z,2.50
2018-07-08T15:15:57.340Z,0.88
2018-07-08T15:18:25.545Z,1.20
2018-07-08T15:20:53.820Z,0.90
2018-07-08T15:23:22.036Z,0.70
2018-07-08T15:25:50.229Z,0.90
2018-07-08T15:28:18.459Z,0.80
2018-07-08T15:30:47.274Z,0.90
2018-07-08T15:33:16.017Z,0.70
2018-07-08T15:35:44.799Z,0.90
2018-07-08T15:38:13.213Z,0.80
2018-07-08T15:40:41.423Z,0.93
2018-07-08T15:43:09.636Z,0.80
2018-07-08T15:45:37.892Z,0.80
2018-07-08T15:48:06.299Z,0.80
2018-07-08T15:50:34.553Z,0.80
2018-07-08T15:53:02.768Z,0.90
2018-07-08T15:55:31.052Z,1.00
2018-07-08T15:57:59.283Z,0.70
2018-07-08T16:00:27.524Z,0.90
2018-07-08T16:02:55.773Z,0.80
2018-07-08T16:05:23.989Z,0.97
2018-07-08T16:07:52.159Z,0.70
2018-07-08T16:10:20.429Z,1.00
2018-07-08T16:12:48.649Z,1.00
2018-07-08T16:15:16.930Z,1.10
2018-07-08T16:17:45.149Z,0.88
2018-07-08T16:20:13.378Z,1.00
2018-07-08T16:22:41.588Z,0.60
2018-07-08T16:25:09.828Z,0.75
2018-07-08T16:27:38.048Z,0.90
2018-07-08T16:30:06.320Z,0.90
2018-07-08T16:32:34.862Z,0.53
2018-07-08T16:35:03.129Z,1.15
2018-07-08T16:37:31.395Z,0.70
2018-07-08T16:39:59.665Z,0.60
2018-07-08T16:42:27.885Z,0.90
2018-07-08T16:44:56.068Z,0.40
2018-07-08T16:47:24.288Z,0.60
2018-07-08T16:49:52.544Z,0.68
2018-07-08T16:52:20.986Z,0.60
2018-07-08T16:54:49.325Z,0.60
2018-07-08T16:57:17.536Z,0.80
2018-07-08T16:59:45.812Z,0.80
2018-07-08T17:02:14.231Z,0.50
2018-07-08T17:04:42.458Z,1.00
2018-07-08T17:07:10.665Z,0.70
2018-07-08T17:09:38.882Z,1.60
2018-07-08T17:12:07.385Z,0.78
2018-07-08T17:14:35.621Z,0.70
2018-07-08T17:17:03.856Z,0.80
2018-07-08T17:19:32.080Z,0.80
2018-07-08T17:22:00.344Z,1.17
2018-07-08T17:24:28.299Z,0.80
2018-07-08T17:26:56.638Z,0.95
2018-07-08T17:29:24.864Z,0.80
2018-07-08T17:31:53.872Z,0.70
2018-07-08T17:34:22.153Z,0.90
2018-07-08T17:36:50.453Z,0.60
2018-07-08T17:39:18.664Z,0.57
2018-07-08T17:41:47.245Z,0.80
2018-07-08T17:44:15.477Z,0.62
2018-07-08T17:46:43.731Z,0.60
2018-07-08T17:49:11.872Z,0.60
2018-07-08T17:51:40.080Z,0.82
2018-07-08T17:54:08.349Z,0.80
2018-07-08T17:56:37.097Z,0.70
2018-07-08T17:59:05.332Z,0.62
2018-07-08T18:01:33.568Z,0.90
2018-07-08T18:04:01.814Z,0.53
2018-07-08T18:06:30.023Z,1.10
2018-07-08T18:08:58.655Z,0.78
2018-07-08T18:11:26.812Z,0.78
2018-07-08T18:13:55.045Z,0.80
2018-07-08T18:16:23.436Z,0.72
2018-07-08T18:18:51.673Z,0.95
2018-07-08T18:21:19.948Z,0.85
2018-07-08T18:23:48.240Z,0.72
2018-07-08T18:26:16.465Z,0.90
2018-07-08T18:28:44.683Z,0.78
2018-07-08T18:31:12.902Z,0.70
2018-07-08T18:33:42.178Z,0.80
2018-07-08T18:36:10.392Z,0.70
2018-07-08T18:38:38.636Z,0.50
2018-07-08T18:41:07.092Z,0.80
2018-07-08T18:43:35.333Z,0.80
2018-07-08T18:46:03.765Z,0.80
2018-07-08T18:48:32.457Z,0.62
2018-07-08T18:51:01.113Z,0.70
2018-07-08T18:53:29.926Z,0.60
2018-07-08T18:55:58.052Z,0.70
2018-07-08T18:58:26.276Z,0.60
2018-07-08T19:00:54.517Z,0.60
2018-07-08T19:03:22.740Z,0.67
2018-07-08T19:05:50.976Z,0.70
2018-07-08T19:08:19.224Z,0.60
2018-07-08T19:10:47.449Z,0.60
2018-07-08T19:13:15.928Z,0.83
2018-07-08T19:15:44.163Z,0.67
2018-07-08T19:18:12.366Z,0.80
2018-07-08T19:20:40.632Z,0.90
2018-07-08T19:23:08.831Z,0.43
2018-07-08T19:25:37.116Z,0.90
2018-07-08T19:28:05.528Z,0.70
2018-07-08T19:30:33.767Z,0.87
2018-07-08T19:33:02.026Z,1.10
2018-07-08T19:35:30.495Z,0.90
2018-07-08T19:37:58.748Z,1.40
2018-07-08T19:40:26.959Z,1.20
2018-07-08T19:42:55.239Z,1.37
2018-07-08T19:45:23.534Z,1.00
2018-07-08T19:47:51.822Z,1.40
2018-07-08T19:50:20.024Z,1.10
2018-07-08T19:52:48.310Z,1.17
2018-07-08T19:55:16.518Z,1.27
2018-07-08T19:57:44.709Z,1.00
2018-07-08T20:00:12.928Z,1.10
2018-07-08T20:02:41.168Z,1.00
2018-07-08T20:05:09.473Z,1.20
2018-07-08T20:07:37.786Z,1.00
2018-07-08T20:10:05.908Z,1.00
2018-07-08T20:12:34.500Z,1.20
2018-07-08T20:15:02.766Z,1.03
2018-07-08T20:17:32.089Z,1.30
2018-07-08T20:20:00.293Z,1.10
2018-07-08T20:22:28.504Z,1.13
2018-07-08T20:24:56.702Z,1.13
2018-07-08T20:27:24.924Z,0.90
2018-07-08T20:29:53.585Z,1.37
2018-07-08T20:32:21.847Z,2.53
2018-07-08T20:34:50.021Z,1.40
2018-07-08T20:37:18.278Z,1.20
2018-07-08T20:39:46.461Z,1.40
2018-07-08T20:42:14.696Z,1.30
2018-07-08T20:44:42.897Z,1.50
2018-07-08T20:47:11.126Z,1.57
2018-07-08T20:49:39.328Z,1.50
2018-07-08T20:52:07.548Z,1.50
2018-07-08T20:54:35.845Z,1.40
2018-07-08T20:57:04.072Z,1.60
2018-07-08T20:59:32.296Z,1.43
2018-07-08T21:02:01.620Z,1.37
2018-07-08T21:04:29.601Z,1.50
2018-07-08T21:06:57.812Z,1.73
2018-07-08T21:09:26.145Z,1.50
2018-07-08T21:11:54.345Z,1.60
2018-07-08T21:14:22.861Z,2.00
2018-07-08T21:16:51.401Z,1.53
2018-07-08T21:19:19.628Z,1.73
2018-07-08T21:21:47.892Z,1.60
2018-07-08T21:24:16.451Z,1.27
2018-07-08T21:26:44.697Z,1.60
2018-07-08T21:29:13.468Z,1.63
2018-07-08T21:31:41.780Z,1.30
2018-07-08T21:34:10.000Z,1.27
2018-07-08T21:36:38.245Z,1.70
2018-07-08T21:39:07.784Z,1.20
2018-07-08T21:41:36.025Z,1.60
2018-07-08T21:44:04.270Z,1.63
2018-07-08T21:46:32.621Z,1.40
2018-07-08T21:49:00.832Z,1.30
2018-07-08T21:51:29.094Z,1.37
2018-07-08T21:53:57.416Z,2.23
2018-07-08T21:56:25.744Z,1.73
2018-07-08T21:58:53.676Z,1.50
2018-07-08T22:01:22.788Z,1.37
2018-07-08T22:03:51.736Z,1.33
2018-07-08T22:06:20.372Z,1.37
2018-07-08T22:08:48.597Z,1.57
2018-07-08T22:11:16.860Z,1.80
2018-07-08T22:13:45.320Z,1.57
2018-07-08T22:16:13.551Z,2.10
2018-07-08T22:18:41.491Z,1.87
2018-07-08T22:21:10.070Z,1.70
2018-07-08T22:23:38.280Z,1.73
2018-07-08T22:26:06.553Z,1.50
2018-07-08T22:28:34.828Z,1.50
2018-07-08T22:31:03.407Z,1.50
2018-07-08T22:33:31.626Z,1.43
2018-07-08T22:35:59.873Z,1.60
2018-07-08T22:38:27.861Z,1.77
2018-07-08T22:40:56.067Z,1.80
2018-07-08T22:43:24.288Z,1.93
2018-07-08T22:45:52.502Z,2.00
2018-07-08T22:48:20.719Z,1.57
2018-07-08T22:50:48.947Z,1.50
2018-07-08T22:53:17.149Z,1.80
2018-07-08T22:55:45.403Z,1.57
2018-07-08T22:58:13.585Z,1.87
2018-07-08T23:00:53.280Z,1.83
2018-07-08T23:03:42.789Z,1.80
2018-07-08T23:06:11.000Z,1.70
2018-07-08T23:08:39.472Z,1.50
2018-07-08T23:11:07.953Z,1.47
2018-07-08T23:13:36.148Z,1.90
2018-07-08T23:16:04.405Z,1.83
2018-07-08T23:18:32.661Z,1.90
2018-07-08T23:21:01.073Z,1.43
2018-07-08T23:23:29.304Z,1.70
2018-07-08T23:25:57.552Z,2.03
2018-07-08T23:28:25.736Z,1.70
2018-07-08T23:30:54.844Z,1.70
2018-07-08T23:33:23.086Z,1.90
2018-07-08T23:35:51.044Z,1.93
2018-07-08T23:38:19.326Z,1.83
2018-07-08T23:40:47.489Z,1.80
2018-07-08T23:43:15.716Z,1.70
2018-07-08T23:45:43.927Z,1.90
2018-07-08T23:48:12.145Z,1.60
2018-07-08T23:50:40.388Z,1.63
2018-07-08T23:53:08.587Z,2.10
2018-07-08T23:55:36.796Z,1.93
2018-07-08T23:58:05.276Z,1.53
